Etusivu
METAR-TAF:

METAR-TAF

Lentoasemat :

Grant County Airport

Silver City, New Mexico, Yhdysvallat

Leveyspiiri: 32-38N, Pituuspiiri: 108-09W, korkeus merenpinnasta: 1659 m

Tämänhetkinen sää

Tämä raportti tehtiin 24 minuuttia sitten, kello 22.15 UTC
Tuuli 13 kn etelästä/lounaasta puuskistuen 23 kn:hen
Lämpötila 28°C
Kosteus 12%
Ilmanpaine 1015 hPa
Näkyvyys: 16.1 km
Hajanaisia pilviä 12000 ft:n korkeudessa

METAR: KSVC 152215Z AUTO 21013G23KT 10SM SCT120 28/M04 A2996 RMK AO2 T02751043

Aika: 16:39 (22:39 UTC)


TAF: puuttuu

Säähavainnot ja -ennusteet yli 4000 lentoasemalta (METAR- ja TAF-raportit).

Käytössä olevat sääasemat on merkitty karttaan keltaisilla ja punaisilla pisteillä.

Aseta hiiri pisteen päälle nähdäksesi sääaseman nimen.

Klikkaa sitten nähdäksesi säähavainnot ja -ennusteet.

Kartan vaihtaminen: klikkaa mustalla rastilla varustettuja vihreitä pisteitä, niin voit zoomata sisään; viivalla varustettua vihreää pistettä, niin voit zoomata ulos tai vihreitä nuolia, niin pääset viereisille kartoille.


METAR-TAF: